Time;durP1;ratioP1;P1;durP2;ratioP2;P2;SDS_P1;SDS_P2;PMS_P1;PMS_P2;Temp;Humidity;BMP_temperature;BMP_pressure;BME280_temperature;BME280_humidity;BME280_pressure;Samples;Min_cycle;Max_cycle;Signal;HPM_P1;HPM_P2
2022/11/16 00:01:52;;;;;;;10.02;6.00;;;;;;;;;;5031955;28;20025;-41
2022/11/16 00:04:18;;;;;;;11.93;6.97;;;;;;;;;;5031645;28;20123;-40
2022/11/16 00:06:45;;;;;;;9.27;4.88;;;;;;;;;;5031869;28;20014;-40
2022/11/16 00:09:25;;;;;;;11.23;5.40;;;;;;;;;;5031937;28;20383;-40
2022/11/16 00:12:11;;;;;;;12.07;6.07;;;;;;;;;;5031868;28;20048;-40
2022/11/16 00:14:37;;;;;;;10.35;5.60;;;;;;;;;;5031501;28;20037;-41
2022/11/16 00:17:03;;;;;;;6.50;5.07;;;;;;;;;;5031567;28;20136;-40
2022/11/16 00:19:29;;;;;;;10.93;5.50;;;;;;;;;;5031456;28;20113;-40
2022/11/16 00:21:54;;;;;;;12.13;6.60;;;;;;;;;;5030458;28;20045;-40
2022/11/16 00:24:20;;;;;;;9.13;5.07;;;;;;;;;;5031600;28;20468;-40
2022/11/16 00:26:46;;;;;;;6.65;4.20;;;;;;;;;;5031783;28;20483;-41
2022/11/16 00:29:15;;;;;;;14.57;7.15;;;;;;;;;;5031498;28;20029;-41
2022/11/16 00:31:41;;;;;;;8.85;5.47;;;;;;;;;;5031358;28;20556;-40
2022/11/16 00:34:06;;;;;;;12.93;5.47;;;;;;;;;;5029886;28;20158;-41
2022/11/16 00:36:32;;;;;;;9.88;4.82;;;;;;;;;;5031381;28;20371;-41
2022/11/16 00:38:57;;;;;;;8.57;4.47;;;;;;;;;;5031379;28;20041;-40
2022/11/16 00:41:23;;;;;;;9.02;4.88;;;;;;;;;;5031135;28;20092;-41
2022/11/16 00:43:48;;;;;;;8.13;4.63;;;;;;;;;;5031225;28;20095;-40
2022/11/16 00:46:13;;;;;;;8.23;4.30;;;;;;;;;;5031158;28;20435;-41
2022/11/16 00:48:39;;;;;;;7.53;3.78;;;;;;;;;;5031004;28;20064;-40
2022/11/16 00:51:05;;;;;;;9.63;4.75;;;;;;;;;;5031509;28;20034;-40
2022/11/16 00:53:30;;;;;;;8.93;4.93;;;;;;;;;;5029613;28;20124;-40
2022/11/16 00:55:56;;;;;;;6.65;3.78;;;;;;;;;;5029900;28;20100;-41
2022/11/16 00:58:22;;;;;;;8.73;4.32;;;;;;;;;;5029787;28;20383;-41
2022/11/16 01:00:54;;;;;;;5.70;4.05;;;;;;;;;;5029889;28;20467;-41
2022/11/16 01:03:19;;;;;;;6.70;4.43;;;;;;;;;;5029702;28;20079;-40
2022/11/16 01:05:44;;;;;;;6.78;4.55;;;;;;;;;;5031295;28;20021;-40
2022/11/16 01:08:10;;;;;;;5.93;3.53;;;;;;;;;;5029731;28;20057;-40
2022/11/16 01:10:37;;;;;;;7.65;5.07;;;;;;;;;;5029717;28;20025;-41
2022/11/16 01:13:03;;;;;;;7.20;4.20;;;;;;;;;;5029620;28;20045;-40
2022/11/16 01:15:28;;;;;;;4.53;3.20;;;;;;;;;;5029964;28;20029;-40
2022/11/16 01:17:54;;;;;;;9.18;4.25;;;;;;;;;;5029603;28;20033;-41
2022/11/16 01:20:22;;;;;;;4.78;3.20;;;;;;;;;;5029656;28;20041;-40
2022/11/16 01:22:48;;;;;;;6.72;2.70;;;;;;;;;;5030968;28;20030;-40
2022/11/16 01:25:14;;;;;;;18.77;5.45;;;;;;;;;;5030960;28;20068;-40
2022/11/16 01:27:40;;;;;;;7.80;3.95;;;;;;;;;;5029633;28;20033;-40
2022/11/16 01:30:11;;;;;;;7.10;3.65;;;;;;;;;;5029471;28;20393;-41
2022/11/16 01:32:40;;;;;;;8.18;4.72;;;;;;;;;;5029430;28;20376;-40
2022/11/16 01:35:06;;;;;;;10.68;3.88;;;;;;;;;;5034240;28;20070;-40
2022/11/16 01:37:33;;;;;;;10.48;4.15;;;;;;;;;;5033223;28;20072;-40
2022/11/16 01:39:58;;;;;;;7.05;4.47;;;;;;;;;;5033107;28;20478;-41
2022/11/16 01:42:26;;;;;;;7.45;3.72;;;;;;;;;;5033010;28;20032;-40
2022/11/16 01:44:57;;;;;;;9.10;4.78;;;;;;;;;;5033304;28;20025;-40
2022/11/16 01:47:23;;;;;;;8.32;4.30;;;;;;;;;;5032816;28;20120;-40
2022/11/16 01:49:58;;;;;;;8.60;3.90;;;;;;;;;;5032818;28;20140;-40
2022/11/16 01:52:30;;;;;;;7.45;3.55;;;;;;;;;;5032731;28;20403;-40
2022/11/16 01:54:55;;;;;;;5.50;3.75;;;;;;;;;;5032867;28;20045;-40
2022/11/16 01:57:24;;;;;;;7.03;3.70;;;;;;;;;;5032825;28;20501;-40
2022/11/16 01:59:59;;;;;;;9.13;4.65;;;;;;;;;;5032755;28;20037;-41
2022/11/16 02:02:39;;;;;;;9.98;3.28;;;;;;;;;;5034264;28;20034;-41
2022/11/16 02:05:06;;;;;;;6.18;4.13;;;;;;;;;;5032666;28;20495;-40
2022/11/16 02:10:33;;;;;;;6.20;3.53;;;;;;;;;;5032618;28;20029;-41
2022/11/16 02:13:00;;;;;;;7.10;4.78;;;;;;;;;;5032463;28;20042;-41
2022/11/16 02:15:45;;;;;;;8.13;4.40;;;;;;;;;;5032398;28;20031;-40
2022/11/16 02:18:29;;;;;;;7.82;4.05;;;;;;;;;;5032448;28;20033;-40
2022/11/16 02:21:04;;;;;;;8.32;4.38;;;;;;;;;;5032274;28;20051;-40
2022/11/16 02:23:42;;;;;;;6.90;4.57;;;;;;;;;;5032221;28;20446;-41
2022/11/16 02:26:24;;;;;;;6.35;4.32;;;;;;;;;;5032281;28;20131;-40
2022/11/16 02:28:58;;;;;;;7.53;4.32;;;;;;;;;;5032082;28;20033;-41
2022/11/16 02:31:26;;;;;;;8.52;4.03;;;;;;;;;;5032174;28;20506;-40
2022/11/16 02:33:52;;;;;;;6.10;4.32;;;;;;;;;;5033312;28;20030;-40
2022/11/16 02:36:20;;;;;;;7.15;4.30;;;;;;;;;;5033081;28;20033;-40
2022/11/16 02:38:48;;;;;;;6.93;4.20;;;;;;;;;;5032075;28;20021;-42
2022/11/16 02:41:16;;;;;;;10.73;4.07;;;;;;;;;;5033163;28;20116;-40
2022/11/16 02:43:55;;;;;;;4.00;2.58;;;;;;;;;;5031877;28;20027;-40
2022/11/16 02:46:28;;;;;;;7.00;3.05;;;;;;;;;;5030788;28;20596;-40
2022/11/16 02:48:56;;;;;;;6.00;3.47;;;;;;;;;;5033024;28;20511;-41
2022/11/16 02:51:22;;;;;;;9.50;4.15;;;;;;;;;;5031602;28;20464;-40
2022/11/16 02:54:01;;;;;;;8.93;3.90;;;;;;;;;;5031660;28;20044;-42
2022/11/16 02:56:27;;;;;;;8.75;3.83;;;;;;;;;;5031560;28;20419;-40
2022/11/16 02:58:53;;;;;;;10.65;4.45;;;;;;;;;;5031693;28;20025;-41
2022/11/16 03:01:23;;;;;;;6.90;4.10;;;;;;;;;;5032764;28;20111;-40
2022/11/16 03:04:00;;;;;;;6.65;4.15;;;;;;;;;;5014995;28;20039;-41
2022/11/16 03:06:32;;;;;;;6.50;3.85;;;;;;;;;;5031430;28;20029;-41
2022/11/16 03:09:03;;;;;;;7.97;5.00;;;;;;;;;;5032736;28;20034;-40
2022/11/16 03:14:17;;;;;;;7.07;3.78;;;;;;;;;;5031283;28;20080;-41
2022/11/16 03:16:45;;;;;;;8.20;4.55;;;;;;;;;;5032536;28;20496;-40
2022/11/16 03:19:16;;;;;;;6.85;4.45;;;;;;;;;;5031148;28;20025;-41
2022/11/16 03:21:50;;;;;;;5.93;4.30;;;;;;;;;;5031306;28;20116;-40
2022/11/16 03:24:18;;;;;;;5.20;3.15;;;;;;;;;;5031125;28;20033;-40
2022/11/16 03:26:52;;;;;;;5.65;3.60;;;;;;;;;;5032427;28;20009;-40
2022/11/16 03:29:27;;;;;;;4.87;3.83;;;;;;;;;;5031012;28;20034;-40
2022/11/16 03:31:56;;;;;;;6.63;3.35;;;;;;;;;;5030990;28;20053;-41
2022/11/16 03:34:26;;;;;;;5.38;3.70;;;;;;;;;;5032096;28;20021;-40
2022/11/16 03:36:52;;;;;;;7.00;3.75;;;;;;;;;;5031013;28;20468;-41
2022/11/16 03:39:35;;;;;;;7.50;3.25;;;;;;;;;;5032042;28;20025;-41
2022/11/16 03:42:05;;;;;;;7.03;4.30;;;;;;;;;;5014539;28;20053;-41
2022/11/16 03:44:32;;;;;;;6.03;3.17;;;;;;;;;;5030694;28;20057;-41
2022/11/16 03:46:58;;;;;;;6.18;4.28;;;;;;;;;;5032267;28;20060;-41
2022/11/16 03:49:23;;;;;;;7.10;2.70;;;;;;;;;;5030471;28;20100;-41
2022/11/16 03:51:51;;;;;;;6.80;3.45;;;;;;;;;;5030654;28;20383;-41
2022/11/16 03:54:17;;;;;;;6.05;3.42;;;;;;;;;;5030568;28;20037;-41
2022/11/16 03:56:43;;;;;;;7.05;4.28;;;;;;;;;;5030389;28;20021;-41
2022/11/16 03:59:08;;;;;;;6.90;3.80;;;;;;;;;;5030587;28;20387;-42
2022/11/16 04:01:33;;;;;;;7.57;3.90;;;;;;;;;;5030354;28;20025;-40
2022/11/16 04:03:59;;;;;;;7.95;3.42;;;;;;;;;;5031733;28;20041;-40
2022/11/16 04:25:42;;;;;;;7.00;3.35;;;;;;;;;;5030296;28;20040;-41
2022/11/16 04:28:15;;;;;;;5.03;3.53;;;;;;;;;;5031658;28;20029;-41
2022/11/16 04:39:13;;;;;;;5.97;2.92;;;;;;;;;;5029952;28;20480;-40
2022/11/16 04:44:23;;;;;;;5.53;2.88;;;;;;;;;;5029804;28;20040;-40
2022/11/16 04:47:07;;;;;;;3.95;2.70;;;;;;;;;;5029989;28;20025;-41
2022/11/16 04:49:35;;;;;;;5.68;3.20;;;;;;;;;;5029799;28;20541;-41
2022/11/16 04:52:00;;;;;;;4.88;2.70;;;;;;;;;;5029907;28;20065;-40
2022/11/16 04:54:28;;;;;;;4.13;2.00;;;;;;;;;;5029805;28;20165;-40
2022/11/16 04:56:54;;;;;;;4.65;2.83;;;;;;;;;;5029957;28;20053;-40
2022/11/16 04:59:21;;;;;;;5.15;2.92;;;;;;;;;;5029762;28;20083;-40
2022/11/16 05:04:31;;;;;;;4.35;3.15;;;;;;;;;;5029723;28;20026;-41
2022/11/16 05:06:57;;;;;;;3.78;2.38;;;;;;;;;;5029771;28;20112;-40
2022/11/16 05:09:22;;;;;;;7.13;3.40;;;;;;;;;;5032289;28;20388;-40
2022/11/16 05:11:47;;;;;;;3.95;2.28;;;;;;;;;;5034804;28;20026;-41
2022/11/16 05:14:13;;;;;;;5.63;4.03;;;;;;;;;;5033555;28;20030;-41
2022/11/16 05:16:41;;;;;;;5.28;3.03;;;;;;;;;;5033605;28;20021;-41
2022/11/16 05:21:51;;;;;;;4.28;2.60;;;;;;;;;;5033537;28;20036;-40
2022/11/16 05:24:35;;;;;;;5.63;2.92;;;;;;;;;;5034725;28;20100;-41
2022/11/16 05:27:01;;;;;;;4.70;2.67;;;;;;;;;;5033308;28;20495;-42
2022/11/16 05:29:27;;;;;;;5.40;2.42;;;;;;;;;;5034632;28;20026;-40
2022/11/16 05:31:52;;;;;;;3.47;2.55;;;;;;;;;;5034606;28;20027;-41
2022/11/16 05:34:18;;;;;;;4.88;2.75;;;;;;;;;;5033064;28;20021;-41
2022/11/16 05:36:44;;;;;;;3.97;2.90;;;;;;;;;;5033283;28;20026;-40
2022/11/16 05:39:10;;;;;;;3.53;2.42;;;;;;;;;;5033170;28;20068;-41
2022/11/16 05:41:37;;;;;;;5.88;2.53;;;;;;;;;;5033109;28;20107;-40
2022/11/16 05:44:03;;;;;;;4.85;2.85;;;;;;;;;;5033106;28;20729;-40
2022/11/16 05:46:28;;;;;;;4.65;2.78;;;;;;;;;;5034224;28;20025;-40
2022/11/16 05:48:56;;;;;;;5.32;3.33;;;;;;;;;;5032933;28;20049;-40
2022/11/16 05:51:23;;;;;;;2.97;1.92;;;;;;;;;;5032908;28;20109;-40
2022/11/16 05:53:49;;;;;;;3.53;2.05;;;;;;;;;;5032894;28;20038;-41
2022/11/16 05:56:19;;;;;;;5.18;2.22;;;;;;;;;;5032796;28;20025;-40
2022/11/16 05:58:45;;;;;;;2.90;2.47;;;;;;;;;;5032848;28;20479;-41
2022/11/16 06:01:10;;;;;;;4.22;2.55;;;;;;;;;;5034146;28;20037;-40
2022/11/16 06:03:36;;;;;;;3.55;2.28;;;;;;;;;;5032785;28;20055;-40
2022/11/16 06:06:02;;;;;;;4.47;2.80;;;;;;;;;;5032775;28;20490;-40
2022/11/16 06:08:30;;;;;;;4.28;2.45;;;;;;;;;;5032631;28;20029;-40
2022/11/16 06:11:02;;;;;;;4.57;2.72;;;;;;;;;;5032535;28;20029;-41
2022/11/16 06:13:27;;;;;;;3.45;2.63;;;;;;;;;;5032384;28;20045;-41
2022/11/16 06:15:56;;;;;;;6.95;2.25;;;;;;;;;;5032434;28;20148;-40
2022/11/16 06:18:22;;;;;;;3.92;2.42;;;;;;;;;;5032400;28;20120;-41
2022/11/16 06:20:48;;;;;;;4.35;2.92;;;;;;;;;;5032378;28;20021;-41
2022/11/16 06:23:16;;;;;;;4.72;2.45;;;;;;;;;;5032235;28;20121;-41
2022/11/16 06:25:41;;;;;;;3.03;2.42;;;;;;;;;;5032382;28;20108;-40
2022/11/16 06:28:08;;;;;;;4.72;2.20;;;;;;;;;;5032224;28;20045;-40
2022/11/16 06:30:36;;;;;;;3.15;2.03;;;;;;;;;;5032440;28;20044;-40
2022/11/16 06:33:03;;;;;;;3.85;2.28;;;;;;;;;;5032060;28;20376;-40
2022/11/16 06:35:29;;;;;;;4.43;3.28;;;;;;;;;;5032133;28;20101;-40
2022/11/16 06:37:56;;;;;;;4.55;2.80;;;;;;;;;;5032103;28;20029;-41
2022/11/16 06:40:22;;;;;;;5.60;3.17;;;;;;;;;;5031883;28;20331;-40
2022/11/16 06:42:48;;;;;;;5.10;2.78;;;;;;;;;;5032281;28;20059;-41
2022/11/16 06:45:14;;;;;;;7.20;3.08;;;;;;;;;;5031762;28;20532;-42
2022/11/16 06:47:45;;;;;;;5.65;2.70;;;;;;;;;;5031745;28;20479;-40
2022/11/16 06:50:11;;;;;;;4.25;2.75;;;;;;;;;;5015484;28;20480;-40
2022/11/16 06:52:37;;;;;;;4.15;2.95;;;;;;;;;;5031613;28;20029;-40
2022/11/16 06:55:03;;;;;;;6.18;3.28;;;;;;;;;;5031768;28;20099;-41
2022/11/16 06:57:32;;;;;;;4.03;2.55;;;;;;;;;;5031631;28;20071;-40
2022/11/16 06:59:57;;;;;;;6.22;3.30;;;;;;;;;;5032913;28;20502;-40
2022/11/16 07:02:23;;;;;;;5.82;2.65;;;;;;;;;;5031595;28;20025;-41
2022/11/16 07:04:49;;;;;;;5.63;3.28;;;;;;;;;;5031461;28;20064;-40
2022/11/16 07:07:15;;;;;;;4.28;2.75;;;;;;;;;;5031405;28;20504;-41
2022/11/16 07:09:41;;;;;;;5.22;3.47;;;;;;;;;;5031524;28;20075;-41
2022/11/16 07:12:07;;;;;;;5.00;3.13;;;;;;;;;;5031420;28;20060;-41
2022/11/16 07:14:36;;;;;;;5.07;3.10;;;;;;;;;;5031288;28;20025;-40
2022/11/16 07:17:03;;;;;;;7.80;2.92;;;;;;;;;;5031283;28;20023;-40
2022/11/16 07:19:29;;;;;;;4.80;3.00;;;;;;;;;;5032623;28;20033;-40
2022/11/16 07:21:55;;;;;;;3.53;2.05;;;;;;;;;;5031196;28;20112;-40
2022/11/16 07:24:21;;;;;;;7.30;3.28;;;;;;;;;;5031133;28;20029;-40
2022/11/16 07:26:46;;;;;;;4.95;3.35;;;;;;;;;;5014815;28;20051;-41
2022/11/16 07:29:16;;;;;;;3.00;2.08;;;;;;;;;;5030970;28;20028;-40
2022/11/16 07:32:00;;;;;;;4.15;3.10;;;;;;;;;;5030537;28;20052;-40
2022/11/16 07:34:51;;;;;;;5.55;2.40;;;;;;;;;;5032138;28;20413;-40
2022/11/16 07:37:17;;;;;;;5.22;3.17;;;;;;;;;;5030896;28;20052;-40
2022/11/16 07:39:44;;;;;;;3.78;3.05;;;;;;;;;;5032240;28;20024;-40
2022/11/16 07:42:11;;;;;;;5.25;3.08;;;;;;;;;;5030852;28;20091;-40
2022/11/16 07:44:58;;;;;;;4.32;3.00;;;;;;;;;;5030406;28;20018;-40
2022/11/16 07:47:24;;;;;;;3.17;2.40;;;;;;;;;;5030703;28;20033;-41
2022/11/16 07:49:49;;;;;;;4.32;1.92;;;;;;;;;;5030556;28;20136;-41
2022/11/16 07:52:18;;;;;;;4.18;1.77;;;;;;;;;;5030572;28;20033;-40
2022/11/16 07:54:55;;;;;;;3.55;2.50;;;;;;;;;;5030697;28;20018;-41
2022/11/16 07:57:23;;;;;;;5.90;2.63;;;;;;;;;;5030534;28;20036;-40
2022/11/16 07:59:51;;;;;;;3.40;2.22;;;;;;;;;;5030539;28;20487;-40
2022/11/16 08:02:16;;;;;;;2.72;2.03;;;;;;;;;;5014108;28;20033;-41
2022/11/16 08:04:42;;;;;;;7.32;2.25;;;;;;;;;;5030356;28;20028;-40
2022/11/16 08:07:09;;;;;;;3.20;2.17;;;;;;;;;;5031786;28;20037;-41
2022/11/16 08:09:41;;;;;;;2.88;1.73;;;;;;;;;;5030415;28;20025;-41
2022/11/16 08:12:12;;;;;;;3.03;2.00;;;;;;;;;;5030306;28;20049;-40
2022/11/16 08:14:38;;;;;;;3.53;2.17;;;;;;;;;;5030308;28;20022;-41
2022/11/16 08:17:04;;;;;;;3.88;2.03;;;;;;;;;;5030272;28;20136;-40
2022/11/16 08:19:29;;;;;;;3.20;2.20;;;;;;;;;;5030258;28;20030;-40
2022/11/16 08:21:55;;;;;;;3.55;2.13;;;;;;;;;;5030241;28;20025;-41
2022/11/16 08:24:23;;;;;;;3.60;1.88;;;;;;;;;;5030036;28;20502;-41
2022/11/16 08:26:50;;;;;;;2.60;1.65;;;;;;;;;;5030283;28;20089;-40
2022/11/16 08:29:15;;;;;;;4.32;2.50;;;;;;;;;;5029700;28;20029;-41
2022/11/16 08:31:46;;;;;;;2.63;2.17;;;;;;;;;;5030017;28;20051;-40
2022/11/16 08:34:15;;;;;;;3.47;2.17;;;;;;;;;;5029965;28;20038;-41
2022/11/16 08:36:44;;;;;;;2.92;2.10;;;;;;;;;;5030231;28;20380;-41
2022/11/16 08:39:11;;;;;;;2.67;2.10;;;;;;;;;;5030060;28;20120;-41
2022/11/16 08:41:36;;;;;;;1.83;1.50;;;;;;;;;;5030050;28;20113;-40
2022/11/16 08:44:04;;;;;;;3.47;2.17;;;;;;;;;;5032014;28;20033;-41
2022/11/16 08:46:32;;;;;;;2.33;1.58;;;;;;;;;;5033979;28;20025;-41
2022/11/16 08:49:15;;;;;;;2.25;1.65;;;;;;;;;;5033947;28;20397;-40
2022/11/16 08:51:41;;;;;;;2.45;1.48;;;;;;;;;;5034073;28;20037;-41
2022/11/16 08:54:06;;;;;;;2.95;1.70;;;;;;;;;;5033903;28;20042;-40
2022/11/16 08:56:35;;;;;;;4.05;2.40;;;;;;;;;;5033920;28;20029;-40
2022/11/16 08:59:02;;;;;;;2.40;1.42;;;;;;;;;;5035271;28;20025;-41
2022/11/16 09:01:28;;;;;;;2.67;1.92;;;;;;;;;;5033767;28;20022;-40
2022/11/16 09:03:54;;;;;;;2.83;1.90;;;;;;;;;;5035156;28;20387;-40
2022/11/16 09:06:20;;;;;;;3.10;1.90;;;;;;;;;;5035083;28;20037;-43
2022/11/16 09:08:46;;;;;;;2.55;2.17;;;;;;;;;;5035296;28;20356;-40
2022/11/16 09:11:16;;;;;;;3.13;2.05;;;;;;;;;;5035124;28;20108;-41
2022/11/16 09:13:42;;;;;;;5.05;2.70;;;;;;;;;;5034783;28;20037;-41
2022/11/16 09:16:07;;;;;;;3.38;2.03;;;;;;;;;;5034921;28;20065;-41
2022/11/16 09:18:33;;;;;;;5.25;2.53;;;;;;;;;;5034862;28;20022;-40
2022/11/16 09:20:59;;;;;;;5.43;2.45;;;;;;;;;;5034805;28;20026;-40
2022/11/16 09:23:24;;;;;;;5.32;3.22;;;;;;;;;;5034972;28;20014;-41
2022/11/16 09:25:49;;;;;;;3.05;2.22;;;;;;;;;;5033630;28;20450;-40
2022/11/16 09:28:15;;;;;;;6.85;3.30;;;;;;;;;;5034707;28;20024;-40
2022/11/16 09:30:41;;;;;;;5.28;3.30;;;;;;;;;;5034736;28;20047;-40
2022/11/16 09:33:07;;;;;;;7.05;2.88;;;;;;;;;;5033226;28;20029;-41
2022/11/16 09:35:33;;;;;;;4.90;2.78;;;;;;;;;;5033163;28;20059;-40
2022/11/16 09:37:58;;;;;;;9.95;2.90;;;;;;;;;;5034562;28;20477;-41
2022/11/16 09:40:34;;;;;;;5.60;2.63;;;;;;;;;;5034354;28;20120;-40
2022/11/16 09:43:18;;;;;;;5.15;2.50;;;;;;;;;;5034355;28;20037;-41
2022/11/16 09:45:59;;;;;;;6.47;2.97;;;;;;;;;;5034406;28;20380;-40
2022/11/16 09:48:25;;;;;;;4.00;2.40;;;;;;;;;;5034209;28;20408;-40
2022/11/16 09:50:52;;;;;;;2.63;2.05;;;;;;;;;;5033075;28;20032;-40
2022/11/16 09:53:18;;;;;;;5.57;1.83;;;;;;;;;;5034177;28;20171;-40
2022/11/16 09:55:49;;;;;;;2.75;2.28;;;;;;;;;;5033560;28;20036;-41
2022/11/16 09:58:18;;;;;;;2.05;1.83;;;;;;;;;;5034163;28;20033;-41
2022/11/16 10:00:48;;;;;;;2.38;1.63;;;;;;;;;;5034064;28;20034;-40
2022/11/16 10:03:14;;;;;;;3.47;2.15;;;;;;;;;;5034264;28;20029;-41
2022/11/16 10:05:46;;;;;;;4.30;2.47;;;;;;;;;;5033912;28;20024;-40
2022/11/16 10:08:17;;;;;;;6.45;2.45;;;;;;;;;;5034031;28;20044;-41
2022/11/16 10:10:48;;;;;;;9.05;2.25;;;;;;;;;;5032616;28;20033;-40
2022/11/16 10:13:20;;;;;;;4.35;2.35;;;;;;;;;;5034037;28;20075;-41
2022/11/16 10:15:54;;;;;;;3.05;2.30;;;;;;;;;;5033849;28;20124;-40
2022/11/16 10:18:23;;;;;;;3.80;1.65;;;;;;;;;;5033648;28;20047;-40
2022/11/16 10:20:51;;;;;;;2.08;1.77;;;;;;;;;;5033762;28;20017;-40
2022/11/16 10:23:17;;;;;;;2.60;1.70;;;;;;;;;;5033877;28;20067;-40
2022/11/16 10:25:43;;;;;;;3.15;1.80;;;;;;;;;;5033616;28;20053;-40
2022/11/16 10:28:48;;;;;;;2.78;1.83;;;;;;;;;;5033558;28;20087;-41
2022/11/16 10:31:32;;;;;;;1.58;1.35;;;;;;;;;;5031125;28;20034;-40
2022/11/16 10:33:58;;;;;;;2.05;1.48;;;;;;;;;;5030919;28;20210;-40
2022/11/16 10:36:26;;;;;;;2.67;1.95;;;;;;;;;;5032449;28;20022;-41
2022/11/16 10:38:54;;;;;;;3.15;1.65;;;;;;;;;;5048778;28;20048;-42
2022/11/16 10:41:28;;;;;;;1.98;1.48;;;;;;;;;;5033236;28;20032;-41
2022/11/16 10:43:56;;;;;;;2.88;1.98;;;;;;;;;;5033556;28;20624;-41
2022/11/16 10:46:40;;;;;;;2.20;1.73;;;;;;;;;;5033119;28;20029;-40
2022/11/16 10:49:18;;;;;;;2.47;1.88;;;;;;;;;;5033148;28;20045;-40
2022/11/16 10:51:43;;;;;;;3.30;1.83;;;;;;;;;;5033168;28;20395;-40
2022/11/16 10:54:12;;;;;;;3.15;2.05;;;;;;;;;;5032958;28;20037;-41
2022/11/16 10:56:41;;;;;;;4.68;1.63;;;;;;;;;;5032978;28;20113;-41
2022/11/16 10:59:08;;;;;;;3.00;1.40;;;;;;;;;;5033036;28;20029;-40
2022/11/16 11:01:38;;;;;;;3.08;1.83;;;;;;;;;;5032869;28;20486;-40
2022/11/16 11:04:30;;;;;;;3.03;1.52;;;;;;;;;;5032915;28;20030;-40
2022/11/16 11:07:18;;;;;;;1.73;1.30;;;;;;;;;;5032094;28;20048;-41
2022/11/16 11:09:50;;;;;;;1.80;1.33;;;;;;;;;;5032611;28;20157;-40
2022/11/16 11:12:38;;;;;;;3.28;1.77;;;;;;;;;;5031504;28;20037;-42
2022/11/16 11:15:09;;;;;;;4.25;1.92;;;;;;;;;;5032953;28;20459;-41
2022/11/16 11:17:36;;;;;;;2.00;1.17;;;;;;;;;;5032910;28;20456;-41
2022/11/16 11:20:14;;;;;;;2.20;1.42;;;;;;;;;;5032610;28;20048;-40
2022/11/16 11:22:42;;;;;;;2.42;1.48;;;;;;;;;;5032383;28;20030;-41
2022/11/16 11:25:40;;;;;;;2.40;1.33;;;;;;;;;;5032417;28;20028;-41
2022/11/16 11:28:18;;;;;;;1.45;0.98;;;;;;;;;;5031048;28;20478;-40
2022/11/16 11:30:56;;;;;;;4.50;1.98;;;;;;;;;;5032654;28;20025;-40
2022/11/16 11:33:23;;;;;;;6.95;2.83;;;;;;;;;;5032103;28;20045;-41
2022/11/16 11:36:17;;;;;;;3.35;1.80;;;;;;;;;;5032352;28;20022;-40
2022/11/16 11:38:57;;;;;;;3.97;1.98;;;;;;;;;;5026442;28;20437;-40
2022/11/16 11:41:22;;;;;;;4.28;1.92;;;;;;;;;;5032083;28;20136;-40
2022/11/16 11:44:05;;;;;;;4.15;2.25;;;;;;;;;;5032118;28;20104;-41
2022/11/16 11:46:36;;;;;;;8.75;2.63;;;;;;;;;;5032263;28;20529;-41
2022/11/16 11:49:28;;;;;;;10.90;2.75;;;;;;;;;;5031909;28;20488;-41
2022/11/16 11:51:55;;;;;;;7.43;3.05;;;;;;;;;;5031669;28;20041;-41
2022/11/16 11:54:27;;;;;;;7.55;3.17;;;;;;;;;;5031842;28;20488;-40
2022/11/16 11:56:54;;;;;;;6.43;2.97;;;;;;;;;;5032242;28;20057;-40
2022/11/16 11:59:24;;;;;;;5.50;2.70;;;;;;;;;;5031854;28;20550;-41
2022/11/16 12:01:50;;;;;;;5.18;2.83;;;;;;;;;;5032084;28;20060;-40
2022/11/16 12:04:34;;;;;;;2.45;1.58;;;;;;;;;;5032162;28;20045;-41
2022/11/16 12:07:15;;;;;;;3.95;2.47;;;;;;;;;;5031637;28;20034;-40
2022/11/16 12:09:49;;;;;;;2.25;2.05;;;;;;;;;;5031654;28;20192;-41
2022/11/16 12:12:14;;;;;;;2.22;1.10;;;;;;;;;;5031890;28;20051;-40
2022/11/16 12:14:39;;;;;;;3.72;1.92;;;;;;;;;;5031593;28;20026;-41
2022/11/16 12:17:08;;;;;;;4.72;2.25;;;;;;;;;;5031462;28;20488;-42
2022/11/16 12:19:40;;;;;;;2.22;1.70;;;;;;;;;;5031804;28;20037;-40
2022/11/16 12:22:44;;;;;;;2.47;1.80;;;;;;;;;;5031512;28;20034;-41
2022/11/16 12:25:15;;;;;;;3.85;1.02;;;;;;;;;;5028947;28;20052;-40
2022/11/16 12:27:50;;;;;;;4.22;1.80;;;;;;;;;;5029022;28;20026;-41
2022/11/16 12:30:17;;;;;;;1.92;1.58;;;;;;;;;;5030429;28;20041;-40
2022/11/16 12:32:50;;;;;;;0.98;0.80;;;;;;;;;;5031235;28;20116;-40
2022/11/16 12:35:34;;;;;;;2.35;1.58;;;;;;;;;;5031202;28;20480;-41
2022/11/16 12:38:09;;;;;;;2.42;1.55;;;;;;;;;;5031652;28;20116;-40
2022/11/16 12:40:54;;;;;;;1.85;1.58;;;;;;;;;;5030002;28;20025;-41
2022/11/16 12:43:23;;;;;;;1.60;1.20;;;;;;;;;;5031393;28;20027;-41
2022/11/16 12:45:57;;;;;;;1.17;1.08;;;;;;;;;;5031353;28;20387;-40
2022/11/16 12:48:29;;;;;;;5.38;1.40;;;;;;;;;;5030952;28;20487;-40
2022/11/16 12:51:17;;;;;;;2.60;1.30;;;;;;;;;;5031290;28;20025;-41
2022/11/16 12:53:43;;;;;;;1.35;1.25;;;;;;;;;;5031379;28;20055;-40
2022/11/16 12:56:08;;;;;;;1.73;0.93;;;;;;;;;;5031483;28;20026;-40
2022/11/16 12:58:37;;;;;;;1.05;0.80;;;;;;;;;;5031107;28;20050;-40
2022/11/16 13:01:25;;;;;;;0.85;0.82;;;;;;;;;;5031125;28;20460;-40
2022/11/16 13:04:13;;;;;;;1.15;0.90;;;;;;;;;;5031275;28;20040;-40
2022/11/16 13:06:43;;;;;;;1.35;1.25;;;;;;;;;;5026728;28;20100;-40
2022/11/16 13:09:17;;;;;;;2.08;1.05;;;;;;;;;;5031080;28;20431;-41
2022/11/16 13:11:44;;;;;;;3.40;1.05;;;;;;;;;;5030980;28;20120;-40
2022/11/16 13:14:14;;;;;;;1.58;1.20;;;;;;;;;;5030996;28;20026;-40
2022/11/16 13:16:40;;;;;;;1.75;1.17;;;;;;;;;;5030916;28;20503;-40
2022/11/16 13:19:09;;;;;;;1.17;1.05;;;;;;;;;;5030784;28;20026;-41
2022/11/16 13:21:37;;;;;;;2.15;1.38;;;;;;;;;;5030952;28;20025;-40
2022/11/16 13:24:23;;;;;;;1.15;1.02;;;;;;;;;;5030798;28;20018;-40
2022/11/16 13:26:49;;;;;;;1.80;1.30;;;;;;;;;;5030775;28;20036;-40
2022/11/16 13:29:20;;;;;;;1.10;0.80;;;;;;;;;;5031587;28;20021;-41
2022/11/16 13:32:04;;;;;;;1.40;1.30;;;;;;;;;;5034633;28;20065;-40
2022/11/16 13:34:31;;;;;;;1.98;1.33;;;;;;;;;;5034571;28;20080;-40
2022/11/16 13:36:57;;;;;;;1.92;1.10;;;;;;;;;;5034595;28;20021;-40
2022/11/16 13:39:41;;;;;;;1.35;1.23;;;;;;;;;;5034622;28;20084;-40
2022/11/16 13:42:10;;;;;;;1.65;1.40;;;;;;;;;;5034690;28;20468;-40
2022/11/16 13:44:36;;;;;;;1.92;1.55;;;;;;;;;;5034167;28;20040;-41
2022/11/16 13:47:05;;;;;;;1.17;0.95;;;;;;;;;;5034399;28;20029;-40
2022/11/16 13:49:33;;;;;;;1.15;1.05;;;;;;;;;;5033955;28;20255;-40
2022/11/16 13:52:00;;;;;;;2.50;0.80;;;;;;;;;;5034448;28;20037;-41
2022/11/16 13:54:26;;;;;;;1.00;0.90;;;;;;;;;;5034112;28;20042;-40
2022/11/16 13:56:52;;;;;;;1.20;1.08;;;;;;;;;;5034158;28;20091;-40
2022/11/16 13:59:22;;;;;;;1.58;1.10;;;;;;;;;;5034399;28;20025;-41
2022/11/16 14:02:21;;;;;;;2.38;1.65;;;;;;;;;;5034069;28;20029;-40
2022/11/16 14:05:00;;;;;;;1.27;1.08;;;;;;;;;;5033845;28;20075;-40
2022/11/16 14:07:30;;;;;;;2.53;1.27;;;;;;;;;;5034199;28;20051;-41
2022/11/16 14:09:56;;;;;;;1.27;1.17;;;;;;;;;;5033982;28;20056;-41
2022/11/16 14:12:37;;;;;;;2.15;1.58;;;;;;;;;;5034072;28;20041;-41
2022/11/16 14:15:15;;;;;;;3.80;1.85;;;;;;;;;;5034016;28;20044;-41
2022/11/16 14:17:47;;;;;;;1.83;1.02;;;;;;;;;;5033814;28;20029;-41
2022/11/16 14:20:14;;;;;;;2.08;1.52;;;;;;;;;;5033730;28;20037;-40
2022/11/16 14:23:03;;;;;;;2.42;1.67;;;;;;;;;;5033622;28;20105;-40
2022/11/16 14:25:32;;;;;;;2.95;1.48;;;;;;;;;;5032446;28;20458;-40
2022/11/16 14:27:57;;;;;;;1.27;1.13;;;;;;;;;;5015846;28;20495;-41
2022/11/16 14:30:46;;;;;;;0.70;0.70;;;;;;;;;;5033455;28;20032;-41
2022/11/16 14:33:13;;;;;;;0.82;0.82;;;;;;;;;;5032824;28;20049;-40
2022/11/16 14:35:39;;;;;;;1.88;1.25;;;;;;;;;;5033671;28;20418;-41
2022/11/16 14:38:20;;;;;;;1.40;1.10;;;;;;;;;;5033422;28;20079;-40
2022/11/16 14:40:47;;;;;;;1.10;0.65;;;;;;;;;;5032116;28;20041;-40
2022/11/16 14:43:32;;;;;;;0.85;0.85;;;;;;;;;;5033512;28;20021;-41
2022/11/16 14:46:04;;;;;;;1.02;0.70;;;;;;;;;;5028346;28;20090;-40
2022/11/16 14:48:30;;;;;;;1.52;0.80;;;;;;;;;;5032919;28;20506;-41
2022/11/16 14:51:08;;;;;;;1.23;0.90;;;;;;;;;;5033563;28;20025;-40
2022/11/16 14:53:36;;;;;;;0.50;0.50;;;;;;;;;;5033007;28;20029;-41
2022/11/16 14:56:06;;;;;;;0.98;0.85;;;;;;;;;;5033112;28;20067;-40
2022/11/16 14:58:31;;;;;;;1.95;1.05;;;;;;;;;;5033204;28;20418;-40
2022/11/16 15:00:58;;;;;;;1.17;0.77;;;;;;;;;;5033017;28;20021;-40
2022/11/16 15:03:26;;;;;;;1.02;0.88;;;;;;;;;;5032814;28;20086;-41
2022/11/16 15:05:51;;;;;;;1.75;0.80;;;;;;;;;;5032921;28;20025;-40
2022/11/16 15:08:25;;;;;;;2.15;1.10;;;;;;;;;;5032980;28;20038;-41
2022/11/16 15:10:51;;;;;;;2.83;1.00;;;;;;;;;;5033010;28;20021;-41
2022/11/16 15:13:21;;;;;;;0.95;0.88;;;;;;;;;;5032726;28;20029;-40
2022/11/16 15:15:47;;;;;;;0.93;0.65;;;;;;;;;;5032903;28;20029;-40
2022/11/16 15:18:16;;;;;;;0.82;0.73;;;;;;;;;;5032575;28;20167;-40
2022/11/16 15:20:51;;;;;;;1.48;0.93;;;;;;;;;;5032628;28;20028;-40
2022/11/16 15:23:18;;;;;;;1.48;0.93;;;;;;;;;;5032554;28;20029;-40
2022/11/16 15:25:45;;;;;;;1.13;0.98;;;;;;;;;;5032406;28;20025;-41
2022/11/16 15:28:15;;;;;;;1.25;1.02;;;;;;;;;;5032769;28;20534;-41
2022/11/16 15:30:43;;;;;;;3.75;0.70;;;;;;;;;;5032418;28;20576;-41
2022/11/16 15:33:14;;;;;;;0.85;0.75;;;;;;;;;;5032476;28;20041;-41
2022/11/16 15:35:39;;;;;;;1.17;0.82;;;;;;;;;;5032465;28;20235;-40
2022/11/16 15:38:10;;;;;;;0.98;0.68;;;;;;;;;;5032324;28;20117;-41
2022/11/16 15:40:35;;;;;;;1.00;0.82;;;;;;;;;;5032081;28;20464;-41
2022/11/16 15:43:02;;;;;;;2.45;0.88;;;;;;;;;;5032237;28;20054;-40